createdAt,value
2023-05-09T00:00:16.588Z,14.60
2023-05-09T00:02:49.410Z,14.09
2023-05-09T00:05:22.576Z,14.39
2023-05-09T00:07:55.740Z,14.56
2023-05-09T00:10:28.708Z,14.84
2023-05-09T00:13:01.730Z,14.72
2023-05-09T00:15:36.007Z,14.11
2023-05-09T00:18:09.307Z,14.67
2023-05-09T00:20:42.283Z,14.81
2023-05-09T00:23:15.148Z,14.31
2023-05-09T00:25:48.029Z,14.65
2023-05-09T00:28:21.271Z,14.47
2023-05-09T00:30:55.743Z,14.63
2023-05-09T00:33:28.609Z,14.67
2023-05-09T00:36:01.471Z,14.51
2023-05-09T00:38:34.505Z,14.61
2023-05-09T00:41:07.359Z,14.34
2023-05-09T00:43:40.233Z,13.93
2023-05-09T00:46:14.387Z,14.12
2023-05-09T00:48:47.639Z,14.61
2023-05-09T00:51:21.351Z,14.10
2023-05-09T00:53:54.149Z,13.86
2023-05-09T00:56:27.009Z,14.16
2023-05-09T00:58:59.908Z,13.69
2023-05-09T01:01:34.256Z,13.87
2023-05-09T01:04:07.265Z,14.36
2023-05-09T01:06:46.263Z,13.96
2023-05-09T01:09:24.757Z,14.02
2023-05-09T01:12:01.852Z,14.44
2023-05-09T01:14:39.034Z,14.00
2023-05-09T01:17:17.240Z,14.46
2023-05-09T01:19:55.224Z,14.37
2023-05-09T01:22:31.064Z,13.85
2023-05-09T01:25:19.634Z,13.96
2023-05-09T01:27:58.681Z,14.22
2023-05-09T01:30:35.774Z,13.90
2023-05-09T01:33:09.260Z,13.86
2023-05-09T01:35:45.148Z,14.00
2023-05-09T01:38:19.791Z,14.05
2023-05-09T01:40:54.485Z,14.06
2023-05-09T01:43:29.751Z,13.70
2023-05-09T01:46:06.143Z,14.10
2023-05-09T01:48:39.326Z,13.84
2023-05-09T01:51:15.425Z,13.98
2023-05-09T01:53:49.324Z,13.73
2023-05-09T01:56:23.543Z,14.42
2023-05-09T01:58:57.152Z,14.35
2023-05-09T02:01:32.246Z,13.68
2023-05-09T02:04:06.241Z,13.82
2023-05-09T02:06:39.813Z,14.25
2023-05-09T02:09:13.346Z,13.78
2023-05-09T02:11:46.998Z,13.60
2023-05-09T02:14:19.908Z,13.62
2023-05-09T02:16:54.244Z,13.76
2023-05-09T02:19:28.420Z,13.61
2023-05-09T02:22:01.623Z,13.71
2023-05-09T02:24:35.366Z,13.76
2023-05-09T02:27:08.631Z,13.55
2023-05-09T02:29:44.420Z,13.34
2023-05-09T02:32:21.360Z,14.03
2023-05-09T02:34:55.636Z,14.29
2023-05-09T02:37:28.867Z,13.65
2023-05-09T02:40:02.530Z,13.53
2023-05-09T02:42:35.412Z,13.90
2023-05-09T02:45:09.913Z,13.82
2023-05-09T02:47:45.007Z,13.62
2023-05-09T02:50:18.007Z,13.73
2023-05-09T02:52:50.923Z,13.50
2023-05-09T02:55:23.883Z,13.13
2023-05-09T02:58:09.227Z,13.89
2023-05-09T03:00:46.268Z,13.55
2023-05-09T03:03:22.223Z,13.51
2023-05-09T03:05:55.232Z,13.27
2023-05-09T03:08:28.135Z,13.46
2023-05-09T03:11:01.135Z,13.69
2023-05-09T03:13:34.064Z,13.54
2023-05-09T03:16:07.331Z,13.47
2023-05-09T03:18:41.531Z,13.04
2023-05-09T03:21:14.396Z,13.05
2023-05-09T03:23:47.550Z,13.59
2023-05-09T03:26:20.924Z,13.50
2023-05-09T03:28:53.834Z,13.56
2023-05-09T03:31:27.793Z,13.58
2023-05-09T03:34:01.962Z,13.33
2023-05-09T03:36:34.750Z,13.49
2023-05-09T03:39:08.360Z,13.03
2023-05-09T03:41:41.921Z,13.39
2023-05-09T03:44:14.753Z,13.38
2023-05-09T03:46:47.605Z,13.72
2023-05-09T03:49:21.888Z,13.54
2023-05-09T03:51:54.826Z,13.70
2023-05-09T03:54:29.838Z,13.59
2023-05-09T03:57:02.779Z,13.89
2023-05-09T03:59:35.669Z,13.79
2023-05-09T04:02:08.638Z,13.03
2023-05-09T04:04:42.829Z,13.04
2023-05-09T04:07:15.721Z,13.82
2023-05-09T04:09:49.566Z,13.70
2023-05-09T04:12:22.513Z,13.78
2023-05-09T04:14:55.291Z,13.57
2023-05-09T04:17:28.333Z,13.47
2023-05-09T04:20:03.194Z,13.19
2023-05-09T04:22:36.330Z,13.31
2023-05-09T04:25:12.554Z,13.04
2023-05-09T04:27:45.600Z,13.31
2023-05-09T04:30:19.035Z,13.09
2023-05-09T04:32:53.479Z,13.40
2023-05-09T04:35:27.878Z,13.12
2023-05-09T04:38:00.983Z,13.52
2023-05-09T04:40:34.374Z,13.69
2023-05-09T04:43:07.648Z,13.54
2023-05-09T04:45:40.744Z,13.61
2023-05-09T04:48:13.941Z,13.04
2023-05-09T04:50:48.618Z,13.19
2023-05-09T04:53:21.840Z,13.15
2023-05-09T04:55:54.976Z,13.17
2023-05-09T04:58:28.076Z,13.09
2023-05-09T05:01:00.871Z,13.55
2023-05-09T05:03:33.853Z,13.32
2023-05-09T05:06:08.652Z,12.94
2023-05-09T05:08:41.781Z,13.44
2023-05-09T05:11:14.811Z,13.69
2023-05-09T05:13:47.632Z,13.31
2023-05-09T05:16:20.576Z,13.87
2023-05-09T05:18:53.407Z,13.54
2023-05-09T05:21:27.641Z,13.47
2023-05-09T05:24:00.856Z,13.62
2023-05-09T05:26:35.785Z,12.93
2023-05-09T05:29:08.896Z,13.41
2023-05-09T05:31:41.800Z,13.52
2023-05-09T05:34:16.756Z,13.47
2023-05-09T05:36:51.221Z,13.63
2023-05-09T05:39:24.006Z,13.36
2023-05-09T05:41:56.794Z,13.26
2023-05-09T05:44:29.940Z,13.02
2023-05-09T05:47:02.770Z,13.30
2023-05-09T05:49:35.586Z,12.95
2023-05-09T05:52:09.829Z,13.10
2023-05-09T05:54:42.771Z,13.61
2023-05-09T05:57:15.743Z,13.28
2023-05-09T05:59:49.026Z,13.43
2023-05-09T06:02:22.131Z,13.29
2023-05-09T06:04:56.060Z,12.71
2023-05-09T06:07:30.601Z,13.17
2023-05-09T06:10:04.687Z,12.97
2023-05-09T06:12:37.669Z,12.84
2023-05-09T06:15:11.263Z,13.22
2023-05-09T06:17:44.213Z,13.30
2023-05-09T06:20:17.232Z,13.22
2023-05-09T06:22:51.674Z,13.01
2023-05-09T06:25:24.664Z,13.56
2023-05-09T06:27:57.470Z,13.28
2023-05-09T06:30:30.435Z,13.79
2023-05-09T06:33:03.354Z,13.66
2023-05-09T06:35:36.280Z,13.81
2023-05-09T06:38:10.447Z,13.50
2023-05-09T06:40:43.673Z,13.01
2023-05-09T06:43:16.461Z,13.53
2023-05-09T06:45:49.389Z,13.47
2023-05-09T06:48:23.989Z,13.67
2023-05-09T06:50:56.864Z,13.48
2023-05-09T06:53:31.040Z,13.51
2023-05-09T06:56:03.997Z,13.66
2023-05-09T06:58:36.903Z,13.89
2023-05-09T07:01:09.788Z,13.58
2023-05-09T07:03:42.714Z,13.48
2023-05-09T07:06:15.830Z,12.96
2023-05-09T07:08:50.240Z,13.49
2023-05-09T07:11:23.369Z,13.71
2023-05-09T07:13:56.869Z,13.64
2023-05-09T07:16:30.323Z,13.80
2023-05-09T07:19:03.233Z,13.79
2023-05-09T07:21:36.003Z,14.19
2023-05-09T07:24:10.182Z,13.66
2023-05-09T07:26:43.241Z,13.37
2023-05-09T07:29:16.973Z,13.53
2023-05-09T07:31:49.896Z,13.99
2023-05-09T07:34:23.902Z,13.53
2023-05-09T07:36:58.735Z,13.57
2023-05-09T07:39:33.336Z,13.70
2023-05-09T07:42:06.147Z,13.38
2023-05-09T07:44:39.045Z,13.17
2023-05-09T07:47:11.992Z,13.32
2023-05-09T07:49:46.639Z,13.61
2023-05-09T07:52:19.486Z,13.39
2023-05-09T07:54:54.691Z,13.84
2023-05-09T07:57:27.660Z,13.35
2023-05-09T08:00:01.046Z,13.29
2023-05-09T08:02:34.794Z,12.68
2023-05-09T08:05:08.410Z,12.86
2023-05-09T08:07:41.330Z,13.12
2023-05-09T08:10:16.625Z,12.78
2023-05-09T08:12:49.563Z,13.61
2023-05-09T08:15:22.548Z,13.57
2023-05-09T08:17:55.634Z,13.48
2023-05-09T08:20:28.664Z,13.56
2023-05-09T08:23:01.582Z,13.51
2023-05-09T08:25:35.814Z,13.00
2023-05-09T08:28:08.630Z,12.98
2023-05-09T08:30:41.754Z,13.24
2023-05-09T08:33:15.882Z,13.57
2023-05-09T08:35:51.471Z,13.41
2023-05-09T08:38:24.851Z,13.32
2023-05-09T08:41:02.720Z,13.53
2023-05-09T08:43:38.778Z,13.16
2023-05-09T08:46:12.057Z,13.10
2023-05-09T08:48:45.612Z,13.17
2023-05-09T08:51:18.525Z,13.67
2023-05-09T08:53:51.813Z,13.37
2023-05-09T08:56:26.767Z,13.70
2023-05-09T08:59:00.063Z,13.59
2023-05-09T09:01:34.493Z,13.06
2023-05-09T09:04:08.016Z,13.39
2023-05-09T09:06:41.468Z,13.45
2023-05-09T09:09:14.992Z,13.03
2023-05-09T09:11:49.532Z,12.81
2023-05-09T09:14:25.544Z,12.97
2023-05-09T09:16:59.597Z,13.50
2023-05-09T09:19:34.956Z,13.58
2023-05-09T09:22:08.896Z,13.76
2023-05-09T09:24:41.975Z,13.56
2023-05-09T09:27:16.722Z,13.47
2023-05-09T09:29:49.605Z,13.12
2023-05-09T09:32:23.115Z,13.56
2023-05-09T09:35:06.956Z,13.90
2023-05-09T09:37:42.833Z,13.58
2023-05-09T09:40:15.854Z,13.67
2023-05-09T09:42:53.038Z,13.44
2023-05-09T09:45:26.023Z,13.55
2023-05-09T09:47:59.343Z,13.64
2023-05-09T09:50:32.428Z,12.98
2023-05-09T09:53:05.315Z,12.97
2023-05-09T09:55:38.220Z,13.64
2023-05-09T09:58:18.780Z,13.35
2023-05-09T10:01:05.711Z,13.55
2023-05-09T10:03:40.485Z,13.84
2023-05-09T10:06:14.113Z,13.91
2023-05-09T10:08:49.055Z,13.55
2023-05-09T10:11:22.106Z,13.13
2023-05-09T10:13:56.671Z,13.36
2023-05-09T10:16:42.600Z,13.69
2023-05-09T10:19:18.917Z,13.21
2023-05-09T10:21:53.226Z,13.50
2023-05-09T10:24:29.491Z,13.50
2023-05-09T10:27:07.269Z,13.71
2023-05-09T10:29:43.882Z,13.47
2023-05-09T10:32:20.576Z,13.40
2023-05-09T10:34:55.733Z,13.52
2023-05-09T10:37:30.977Z,13.41
2023-05-09T10:40:05.756Z,13.85
2023-05-09T10:42:38.840Z,13.55
2023-05-09T10:45:14.109Z,13.90
2023-05-09T10:47:48.442Z,13.66
2023-05-09T10:50:22.450Z,13.88
2023-05-09T10:53:14.342Z,13.80
2023-05-09T10:55:51.668Z,14.20
2023-05-09T10:58:29.019Z,14.02
2023-05-09T11:01:04.200Z,13.80
2023-05-09T11:03:56.263Z,13.84
2023-05-09T11:06:41.840Z,14.03
2023-05-09T11:09:28.555Z,13.90
2023-05-09T11:12:08.298Z,13.93
2023-05-09T11:14:43.022Z,14.46
2023-05-09T11:17:28.866Z,14.48
2023-05-09T11:20:05.614Z,14.19
2023-05-09T11:22:42.233Z,13.98
2023-05-09T11:25:17.019Z,13.72
2023-05-09T11:27:52.048Z,13.79
2023-05-09T11:30:36.070Z,13.91
2023-05-09T11:33:22.441Z,13.57
2023-05-09T11:36:10.174Z,13.97
2023-05-09T11:38:43.274Z,14.08
2023-05-09T11:41:16.578Z,14.06
2023-05-09T11:43:50.626Z,14.09
2023-05-09T11:46:23.869Z,14.18
2023-05-09T11:48:58.255Z,14.61
2023-05-09T11:51:31.379Z,13.89
2023-05-09T11:54:05.264Z,14.06
2023-05-09T11:56:39.757Z,14.48
2023-05-09T11:59:14.762Z,14.15
2023-05-09T12:01:47.791Z,14.24
2023-05-09T12:04:22.123Z,14.20
2023-05-09T12:06:55.039Z,14.33
2023-05-09T12:09:30.864Z,14.36
2023-05-09T12:12:10.908Z,14.28
2023-05-09T12:14:43.767Z,14.32
2023-05-09T12:17:16.572Z,14.43
2023-05-09T12:19:50.852Z,14.80
2023-05-09T12:22:23.789Z,14.55
2023-05-09T12:24:56.602Z,14.44
2023-05-09T12:27:32.098Z,14.57
2023-05-09T12:30:08.589Z,14.34
2023-05-09T12:32:42.721Z,14.72
2023-05-09T12:35:17.344Z,14.68
2023-05-09T12:38:00.071Z,14.64
2023-05-09T12:40:33.111Z,14.37
2023-05-09T12:43:06.295Z,14.41
2023-05-09T12:45:40.044Z,14.53
2023-05-09T12:48:13.714Z,14.35
2023-05-09T12:50:49.462Z,14.48
2023-05-09T12:53:25.757Z,14.34
2023-05-09T12:56:02.822Z,14.36
2023-05-09T12:58:35.868Z,14.51
2023-05-09T13:01:08.844Z,14.69
2023-05-09T13:03:42.539Z,14.33
2023-05-09T13:06:17.036Z,14.43
2023-05-09T13:08:58.524Z,14.55
2023-05-09T13:11:31.580Z,14.41
2023-05-09T13:14:04.526Z,14.63
2023-05-09T13:16:37.825Z,14.69
2023-05-09T13:19:11.379Z,14.68
2023-05-09T13:21:45.620Z,14.88
2023-05-09T13:24:18.640Z,14.60
2023-05-09T13:26:51.691Z,14.63
2023-05-09T13:29:25.023Z,14.48
2023-05-09T13:31:58.705Z,14.59
2023-05-09T13:34:31.771Z,14.50
2023-05-09T13:37:06.119Z,14.33
2023-05-09T13:39:39.009Z,14.44
2023-05-09T13:42:12.177Z,14.53
2023-05-09T13:44:45.039Z,14.63
2023-05-09T13:47:18.145Z,14.49
2023-05-09T13:49:52.203Z,14.76
2023-05-09T13:52:26.885Z,14.40
2023-05-09T13:54:59.670Z,14.62
2023-05-09T13:57:32.572Z,14.71
2023-05-09T14:00:05.996Z,14.43
2023-05-09T14:02:39.152Z,14.05
2023-05-09T14:05:12.162Z,14.21
2023-05-09T14:07:46.371Z,14.18
2023-05-09T14:10:19.429Z,14.36
2023-05-09T14:12:53.384Z,14.56
2023-05-09T14:15:26.248Z,13.95
2023-05-09T14:17:59.072Z,14.24
2023-05-09T14:20:35.333Z,14.17
2023-05-09T14:23:10.043Z,14.09
2023-05-09T14:25:43.117Z,14.18
2023-05-09T14:28:16.105Z,14.20
2023-05-09T14:30:49.181Z,14.10
2023-05-09T14:33:22.137Z,13.94
2023-05-09T14:35:54.953Z,14.29
2023-05-09T14:38:29.561Z,14.38
2023-05-09T14:41:02.852Z,14.22
2023-05-09T14:43:35.868Z,14.46
2023-05-09T14:46:08.842Z,14.50
2023-05-09T14:48:41.901Z,14.63
2023-05-09T14:51:14.929Z,14.55
2023-05-09T14:53:49.519Z,14.52
2023-05-09T14:56:23.336Z,14.78
2023-05-09T14:58:56.212Z,14.82
2023-05-09T15:01:29.179Z,14.52
2023-05-09T15:04:02.404Z,14.51
2023-05-09T15:06:35.528Z,14.10
2023-05-09T15:09:10.243Z,14.15
2023-05-09T15:11:48.400Z,14.65
2023-05-09T15:14:22.075Z,14.19
2023-05-09T15:16:55.446Z,14.60
2023-05-09T15:19:31.180Z,14.42
2023-05-09T15:22:04.852Z,14.30
2023-05-09T15:24:42.648Z,14.53
2023-05-09T15:27:15.586Z,14.50
2023-05-09T15:29:49.005Z,14.19
2023-05-09T15:32:22.243Z,13.82
2023-05-09T15:34:55.064Z,14.08
2023-05-09T15:37:28.437Z,14.02
2023-05-09T15:40:02.711Z,13.98
2023-05-09T15:42:35.658Z,14.20
2023-05-09T15:45:10.012Z,14.08
2023-05-09T15:47:43.071Z,13.82
2023-05-09T15:50:16.239Z,13.62
2023-05-09T15:52:49.662Z,13.75
2023-05-09T15:55:24.061Z,14.04
2023-05-09T15:57:56.975Z,14.10
2023-05-09T16:00:30.178Z,13.85
2023-05-09T16:03:03.232Z,13.81
2023-05-09T16:05:36.561Z,13.83
2023-05-09T16:08:09.696Z,13.79
2023-05-09T16:10:43.925Z,13.82
2023-05-09T16:13:18.161Z,13.91
2023-05-09T16:15:51.217Z,13.67
2023-05-09T16:18:24.266Z,13.67
2023-05-09T16:20:57.198Z,14.07
2023-05-09T16:23:30.066Z,14.15
2023-05-09T16:26:04.360Z,14.19
2023-05-09T16:28:37.255Z,14.25
2023-05-09T16:31:10.502Z,14.35
2023-05-09T16:33:43.981Z,14.01
2023-05-09T16:36:16.979Z,13.85
2023-05-09T16:38:49.932Z,13.73
2023-05-09T16:41:24.331Z,13.68
2023-05-09T16:43:57.369Z,14.06
2023-05-09T16:46:30.260Z,13.96
2023-05-09T16:49:03.365Z,14.19
2023-05-09T16:51:36.333Z,14.08
2023-05-09T16:54:09.231Z,14.00
2023-05-09T16:56:44.119Z,14.19
2023-05-09T16:59:17.509Z,13.79
2023-05-09T17:01:50.552Z,14.24
2023-05-09T17:04:23.765Z,13.75
2023-05-09T17:06:56.758Z,13.83
2023-05-09T17:09:30.313Z,14.03
2023-05-09T17:12:04.773Z,13.83
2023-05-09T17:14:37.645Z,13.87
2023-05-09T17:17:11.272Z,14.00
2023-05-09T17:19:44.459Z,14.25
2023-05-09T17:22:17.500Z,14.04
2023-05-09T17:24:50.335Z,14.04
2023-05-09T17:27:24.773Z,14.05
2023-05-09T17:29:57.541Z,13.74
2023-05-09T17:32:30.882Z,14.08
2023-05-09T17:35:04.892Z,13.87
2023-05-09T17:37:37.820Z,13.88
2023-05-09T17:40:11.532Z,13.84
2023-05-09T17:42:45.751Z,13.88
2023-05-09T17:45:18.719Z,13.88
2023-05-09T17:47:51.644Z,13.74
2023-05-09T17:50:24.626Z,13.73
2023-05-09T17:52:57.475Z,13.96
2023-05-09T17:55:30.436Z,13.80
2023-05-09T17:58:04.886Z,13.79
2023-05-09T18:00:38.020Z,13.78
2023-05-09T18:03:11.522Z,13.80
2023-05-09T18:05:44.423Z,13.67
2023-05-09T18:08:17.685Z,13.84
2023-05-09T18:10:50.608Z,13.35
2023-05-09T18:13:25.521Z,13.52
2023-05-09T18:16:00.008Z,13.67
2023-05-09T18:18:33.122Z,13.83
2023-05-09T18:21:09.635Z,13.56
2023-05-09T18:23:42.544Z,13.09
2023-05-09T18:26:15.437Z,13.52
2023-05-09T18:28:49.619Z,13.23
2023-05-09T18:31:22.721Z,13.16
2023-05-09T18:33:56.374Z,13.14
2023-05-09T18:36:30.107Z,12.97
2023-05-09T18:39:03.095Z,13.34
2023-05-09T18:41:36.065Z,13.08
2023-05-09T18:44:10.866Z,13.04
2023-05-09T18:46:44.417Z,13.34
2023-05-09T18:49:17.353Z,13.23
2023-05-09T18:51:50.555Z,13.00
2023-05-09T18:54:23.515Z,13.11
2023-05-09T18:56:56.568Z,12.68
2023-05-09T18:59:31.892Z,13.05
2023-05-09T19:02:05.106Z,13.27
2023-05-09T19:04:38.255Z,13.38
2023-05-09T19:07:13.241Z,13.06
2023-05-09T19:09:46.367Z,12.99
2023-05-09T19:12:19.277Z,12.83
2023-05-09T19:14:53.826Z,12.42
2023-05-09T19:17:27.008Z,12.93
2023-05-09T19:20:00.966Z,12.97
2023-05-09T19:22:33.782Z,13.24
2023-05-09T19:25:07.657Z,12.53
2023-05-09T19:27:40.883Z,12.42
2023-05-09T19:30:16.571Z,12.99
2023-05-09T19:32:49.824Z,12.74
2023-05-09T19:35:23.188Z,13.06
2023-05-09T19:37:59.006Z,12.59
2023-05-09T19:40:32.440Z,12.31
2023-05-09T19:43:05.853Z,12.79
2023-05-09T19:45:40.588Z,12.50
2023-05-09T19:48:15.695Z,12.62
2023-05-09T19:50:48.985Z,12.69
2023-05-09T19:53:21.957Z,13.05
2023-05-09T19:55:55.536Z,12.85
2023-05-09T19:58:29.045Z,12.36
2023-05-09T20:01:05.277Z,12.82
2023-05-09T20:03:41.020Z,12.56
2023-05-09T20:06:14.484Z,12.50
2023-05-09T20:08:47.576Z,12.26
2023-05-09T20:11:21.701Z,12.23
2023-05-09T20:13:54.589Z,12.33
2023-05-09T20:16:29.011Z,12.50
2023-05-09T20:19:03.927Z,12.21
2023-05-09T20:21:39.501Z,12.09
2023-05-09T20:24:12.475Z,12.15
2023-05-09T20:26:45.224Z,11.87
2023-05-09T20:29:20.910Z,12.16
2023-05-09T20:31:55.556Z,12.07
2023-05-09T20:34:28.464Z,12.69
2023-05-09T20:37:01.548Z,12.34
2023-05-09T20:39:34.737Z,12.52
2023-05-09T20:42:07.771Z,12.67
2023-05-09T20:44:42.229Z,12.30
2023-05-09T20:47:17.491Z,12.29
2023-05-09T20:49:50.552Z,12.16
2023-05-09T20:52:23.637Z,12.51
2023-05-09T20:54:56.606Z,12.12
2023-05-09T20:57:29.405Z,11.99
2023-05-09T21:00:02.241Z,12.50
2023-05-09T21:02:36.655Z,12.40
2023-05-09T21:05:10.238Z,12.09
2023-05-09T21:07:43.255Z,12.14
2023-05-09T21:10:16.389Z,12.08
2023-05-09T21:12:49.536Z,12.04
2023-05-09T21:15:22.543Z,12.36
2023-05-09T21:17:56.903Z,12.49
2023-05-09T21:20:30.002Z,12.16
2023-05-09T21:23:03.156Z,12.61
2023-05-09T21:25:35.985Z,11.94
2023-05-09T21:28:09.187Z,12.06
2023-05-09T21:30:42.054Z,12.70
2023-05-09T21:33:16.340Z,12.81
2023-05-09T21:35:49.206Z,12.95
2023-05-09T21:38:22.085Z,12.62
2023-05-09T21:40:55.391Z,12.41
2023-05-09T21:43:28.996Z,12.16
2023-05-09T21:46:01.899Z,12.14
2023-05-09T21:48:36.453Z,11.88
2023-05-09T21:51:09.586Z,12.21
2023-05-09T21:53:42.673Z,11.99
2023-05-09T21:56:15.767Z,12.19
2023-05-09T21:58:48.967Z,12.29
2023-05-09T22:01:21.761Z,12.13
2023-05-09T22:03:56.482Z,11.82
2023-05-09T22:06:29.484Z,12.04
2023-05-09T22:09:02.466Z,12.03
2023-05-09T22:11:35.504Z,11.76
2023-05-09T22:14:10.233Z,11.73
2023-05-09T22:16:43.202Z,11.99
2023-05-09T22:19:17.546Z,12.08
2023-05-09T22:21:50.784Z,11.98
2023-05-09T22:24:23.548Z,11.93
2023-05-09T22:26:56.417Z,11.69
2023-05-09T22:29:29.348Z,11.82
2023-05-09T22:32:02.269Z,11.83
2023-05-09T22:34:36.523Z,11.66
2023-05-09T22:37:10.011Z,11.74
2023-05-09T22:39:42.941Z,11.76
2023-05-09T22:42:16.141Z,11.38
2023-05-09T22:44:50.128Z,11.29
2023-05-09T22:47:22.895Z,11.67
2023-05-09T22:49:57.329Z,11.67
2023-05-09T22:52:30.160Z,11.62
2023-05-09T22:55:03.588Z,11.99
2023-05-09T22:57:36.905Z,11.83
2023-05-09T23:00:10.241Z,11.97
2023-05-09T23:02:43.109Z,11.90
2023-05-09T23:05:17.473Z,11.80
2023-05-09T23:07:50.239Z,11.74
2023-05-09T23:10:23.307Z,11.41
2023-05-09T23:12:56.120Z,12.08
2023-05-09T23:15:29.059Z,11.45
2023-05-09T23:18:01.948Z,11.72
2023-05-09T23:20:36.677Z,11.50
2023-05-09T23:23:09.657Z,11.48
2023-05-09T23:25:42.414Z,11.62
2023-05-09T23:28:15.266Z,11.92
2023-05-09T23:30:48.090Z,11.66
2023-05-09T23:33:20.900Z,11.72
2023-05-09T23:35:55.505Z,11.57
2023-05-09T23:38:28.350Z,11.63
2023-05-09T23:41:01.397Z,10.80
2023-05-09T23:43:34.964Z,11.05
2023-05-09T23:46:08.258Z,11.20
2023-05-09T23:48:41.602Z,11.07
2023-05-09T23:51:15.942Z,11.06
2023-05-09T23:53:48.758Z,11.24
2023-05-09T23:56:22.570Z,11.66
2023-05-09T23:58:55.701Z,11.42
